sensor_id;sensor_type;location;lat;lon;timestamp;P1;durP1;ratioP1;P2;durP2;ratioP2
3573;SDS011;1801;51.050;6.246;2023-10-13T17:31:22;11.23;;;5.63;;
3573;SDS011;1801;51.050;6.246;2023-10-13T17:33:47;14.30;;;5.67;;
3573;SDS011;1801;51.050;6.246;2023-10-13T17:36:14;15.60;;;5.00;;
3573;SDS011;1801;51.050;6.246;2023-10-13T17:38:40;16.40;;;5.60;;
3573;SDS011;1801;51.050;6.246;2023-10-13T17:41:05;14.60;;;6.60;;
3573;SDS011;1801;51.050;6.246;2023-10-13T17:43:31;22.20;;;6.37;;
3573;SDS011;1801;51.050;6.246;2023-10-13T17:46:00;15.43;;;6.03;;
3573;SDS011;1801;51.050;6.246;2023-10-13T17:48:28;12.03;;;6.03;;
3573;SDS011;1801;51.050;6.246;2023-10-13T17:50:54;16.23;;;5.50;;
3573;SDS011;1801;51.050;6.246;2023-10-13T17:53:19;13.17;;;5.00;;
3573;SDS011;1801;51.050;6.246;2023-10-13T17:55:44;12.10;;;5.53;;
3573;SDS011;1801;51.050;6.246;2023-10-13T17:58:11;13.00;;;5.23;;
3573;SDS011;1801;51.050;6.246;2023-10-13T18:00:36;14.37;;;5.60;;
3573;SDS011;1801;51.050;6.246;2023-10-13T18:03:02;12.70;;;4.80;;
3573;SDS011;1801;51.050;6.246;2023-10-13T18:05:31;17.67;;;5.03;;
3573;SDS011;1801;51.050;6.246;2023-10-13T18:08:00;23.53;;;7.00;;
3573;SDS011;1801;51.050;6.246;2023-10-13T18:10:25;11.50;;;4.50;;
3573;SDS011;1801;51.050;6.246;2023-10-13T18:12:50;15.23;;;6.07;;
3573;SDS011;1801;51.050;6.246;2023-10-13T18:15:15;14.13;;;4.97;;
3573;SDS011;1801;51.050;6.246;2023-10-13T18:17:48;9.73;;;5.63;;
3573;SDS011;1801;51.050;6.246;2023-10-13T18:20:13;11.70;;;5.20;;
3573;SDS011;1801;51.050;6.246;2023-10-13T18:22:44;11.60;;;5.00;;
3573;SDS011;1801;51.050;6.246;2023-10-13T18:25:09;15.47;;;6.07;;
3573;SDS011;1801;51.050;6.246;2023-10-13T18:27:40;12.80;;;5.40;;
3573;SDS011;1801;51.050;6.246;2023-10-13T18:30:07;13.50;;;5.73;;
3573;SDS011;1801;51.050;6.246;2023-10-13T18:32:34;19.67;;;6.73;;
3573;SDS011;1801;51.050;6.246;2023-10-13T18:34:59;20.33;;;6.80;;
3573;SDS011;1801;51.050;6.246;2023-10-13T18:37:24;21.93;;;8.67;;
3573;SDS011;1801;51.050;6.246;2023-10-13T18:39:50;19.57;;;6.73;;
3573;SDS011;1801;51.050;6.246;2023-10-13T18:42:15;18.00;;;7.17;;
3573;SDS011;1801;51.050;6.246;2023-10-13T18:44:41;14.87;;;6.30;;
3573;SDS011;1801;51.050;6.246;2023-10-13T18:47:07;22.30;;;7.40;;
3573;SDS011;1801;51.050;6.246;2023-10-13T18:49:33;16.17;;;6.73;;
3573;SDS011;1801;51.050;6.246;2023-10-13T18:51:58;27.83;;;7.67;;
3573;SDS011;1801;51.050;6.246;2023-10-13T18:54:23;19.43;;;7.77;;
3573;SDS011;1801;51.050;6.246;2023-10-13T18:56:49;16.67;;;6.40;;
3573;SDS011;1801;51.050;6.246;2023-10-13T18:59:17;12.13;;;6.00;;
3573;SDS011;1801;51.050;6.246;2023-10-13T19:01:43;15.60;;;5.93;;
3573;SDS011;1801;51.050;6.246;2023-10-13T19:04:11;14.70;;;5.70;;
3573;SDS011;1801;51.050;6.246;2023-10-13T19:06:39;13.83;;;6.40;;
3573;SDS011;1801;51.050;6.246;2023-10-13T19:09:08;14.70;;;6.47;;
3573;SDS011;1801;51.050;6.246;2023-10-13T19:11:34;10.10;;;5.77;;
3573;SDS011;1801;51.050;6.246;2023-10-13T19:14:00;16.40;;;6.20;;
3573;SDS011;1801;51.050;6.246;2023-10-13T19:16:25;15.27;;;6.77;;
3573;SDS011;1801;51.050;6.246;2023-10-13T19:18:51;19.30;;;5.90;;
3573;SDS011;1801;51.050;6.246;2023-10-13T19:21:16;12.00;;;4.77;;
3573;SDS011;1801;51.050;6.246;2023-10-13T19:23:45;17.00;;;7.27;;
3573;SDS011;1801;51.050;6.246;2023-10-13T19:28:42;13.20;;;6.70;;
3573;SDS011;1801;51.050;6.246;2023-10-13T19:31:08;17.67;;;6.97;;
3573;SDS011;1801;51.050;6.246;2023-10-13T19:33:33;17.80;;;7.50;;
3573;SDS011;1801;51.050;6.246;2023-10-13T19:35:59;14.40;;;6.27;;
3573;SDS011;1801;51.050;6.246;2023-10-13T19:38:24;18.97;;;6.50;;
3573;SDS011;1801;51.050;6.246;2023-10-13T19:40:53;16.37;;;7.13;;
3573;SDS011;1801;51.050;6.246;2023-10-13T19:43:19;20.10;;;7.03;;
3573;SDS011;1801;51.050;6.246;2023-10-13T19:45:45;20.60;;;7.50;;
3573;SDS011;1801;51.050;6.246;2023-10-13T19:48:10;26.60;;;8.10;;
3573;SDS011;1801;51.050;6.246;2023-10-13T19:50:36;14.90;;;7.00;;
3573;SDS011;1801;51.050;6.246;2023-10-13T19:53:02;22.23;;;7.40;;
3573;SDS011;1801;51.050;6.246;2023-10-13T19:55:36;24.07;;;6.97;;
3573;SDS011;1801;51.050;6.246;2023-10-13T19:58:01;15.80;;;7.23;;
3573;SDS011;1801;51.050;6.246;2023-10-13T20:00:26;16.70;;;6.93;;
3573;SDS011;1801;51.050;6.246;2023-10-13T20:02:57;19.10;;;6.97;;
3573;SDS011;1801;51.050;6.246;2023-10-13T20:05:23;20.63;;;7.70;;
3573;SDS011;1801;51.050;6.246;2023-10-13T20:07:48;12.83;;;6.43;;
3573;SDS011;1801;51.050;6.246;2023-10-13T20:10:13;21.70;;;7.50;;
3573;SDS011;1801;51.050;6.246;2023-10-13T20:12:38;27.07;;;7.93;;
3573;SDS011;1801;51.050;6.246;2023-10-13T20:20:43;20.97;;;6.70;;
3573;SDS011;1801;51.050;6.246;2023-10-13T20:23:09;13.13;;;6.10;;
3573;SDS011;1801;51.050;6.246;2023-10-13T20:25:38;22.23;;;6.77;;
3573;SDS011;1801;51.050;6.246;2023-10-13T20:28:03;11.67;;;5.20;;
3573;SDS011;1801;51.050;6.246;2023-10-13T20:30:28;18.20;;;6.37;;
3573;SDS011;1801;51.050;6.246;2023-10-13T20:32:53;13.30;;;5.90;;
3573;SDS011;1801;51.050;6.246;2023-10-13T20:35:19;18.80;;;6.87;;
3573;SDS011;1801;51.050;6.246;2023-10-13T20:37:47;17.43;;;5.40;;
3573;SDS011;1801;51.050;6.246;2023-10-13T20:40:12;17.10;;;7.20;;
3573;SDS011;1801;51.050;6.246;2023-10-13T20:42:44;13.70;;;6.43;;
3573;SDS011;1801;51.050;6.246;2023-10-13T20:45:09;21.80;;;8.03;;
3573;SDS011;1801;51.050;6.246;2023-10-13T20:47:34;15.37;;;5.93;;
3573;SDS011;1801;51.050;6.246;2023-10-13T20:49:59;18.37;;;7.10;;
3573;SDS011;1801;51.050;6.246;2023-10-13T20:52:25;15.90;;;6.63;;
3573;SDS011;1801;51.050;6.246;2023-10-13T20:54:51;15.47;;;6.10;;
3573;SDS011;1801;51.050;6.246;2023-10-13T20:57:18;14.07;;;6.50;;
3573;SDS011;1801;51.050;6.246;2023-10-13T20:59:45;11.43;;;5.30;;
3573;SDS011;1801;51.050;6.246;2023-10-13T21:02:12;21.57;;;7.40;;
3573;SDS011;1801;51.050;6.246;2023-10-13T21:04:39;16.60;;;6.90;;
3573;SDS011;1801;51.050;6.246;2023-10-13T21:07:04;23.47;;;8.07;;
3573;SDS011;1801;51.050;6.246;2023-10-13T21:09:29;16.53;;;8.00;;
3573;SDS011;1801;51.050;6.246;2023-10-13T21:11:55;15.00;;;7.43;;
3573;SDS011;1801;51.050;6.246;2023-10-13T21:14:20;14.27;;;6.07;;
3573;SDS011;1801;51.050;6.246;2023-10-13T21:16:45;18.70;;;8.30;;
3573;SDS011;1801;51.050;6.246;2023-10-13T21:19:10;16.37;;;7.00;;
3573;SDS011;1801;51.050;6.246;2023-10-13T21:21:35;24.70;;;7.93;;
3573;SDS011;1801;51.050;6.246;2023-10-13T21:24:01;13.70;;;6.33;;
3573;SDS011;1801;51.050;6.246;2023-10-13T21:26:29;11.43;;;6.27;;
3573;SDS011;1801;51.050;6.246;2023-10-13T21:28:54;13.20;;;6.67;;
3573;SDS011;1801;51.050;6.246;2023-10-13T21:31:20;21.83;;;7.20;;
3573;SDS011;1801;51.050;6.246;2023-10-13T21:33:49;18.60;;;6.60;;
3573;SDS011;1801;51.050;6.246;2023-10-13T21:36:14;21.73;;;7.73;;
3573;SDS011;1801;51.050;6.246;2023-10-13T21:38:47;17.50;;;7.40;;
3573;SDS011;1801;51.050;6.246;2023-10-13T21:41:12;19.07;;;6.83;;
3573;SDS011;1801;51.050;6.246;2023-10-13T21:43:44;24.37;;;7.00;;
3573;SDS011;1801;51.050;6.246;2023-10-13T21:46:10;21.57;;;8.00;;
3573;SDS011;1801;51.050;6.246;2023-10-13T21:48:38;10.77;;;5.80;;
3573;SDS011;1801;51.050;6.246;2023-10-13T21:51:07;19.90;;;7.97;;
3573;SDS011;1801;51.050;6.246;2023-10-13T21:53:33;16.43;;;8.40;;
3573;SDS011;1801;51.050;6.246;2023-10-13T21:55:58;14.57;;;7.30;;
3573;SDS011;1801;51.050;6.246;2023-10-13T21:58:24;15.10;;;6.83;;
3573;SDS011;1801;51.050;6.246;2023-10-13T22:00:51;17.33;;;7.70;;
3573;SDS011;1801;51.050;6.246;2023-10-13T22:03:21;12.07;;;6.20;;
3573;SDS011;1801;51.050;6.246;2023-10-13T22:05:47;20.30;;;9.13;;
3573;SDS011;1801;51.050;6.246;2023-10-13T22:08:13;15.77;;;8.37;;
3573;SDS011;1801;51.050;6.246;2023-10-13T22:10:38;18.60;;;8.33;;
3573;SDS011;1801;51.050;6.246;2023-10-13T22:13:04;16.77;;;8.57;;
3573;SDS011;1801;51.050;6.246;2023-10-13T22:15:30;14.70;;;7.77;;
3573;SDS011;1801;51.050;6.246;2023-10-13T22:17:55;21.80;;;9.00;;
3573;SDS011;1801;51.050;6.246;2023-10-13T22:20:20;23.50;;;8.30;;
3573;SDS011;1801;51.050;6.246;2023-10-13T22:22:49;23.87;;;8.30;;
3573;SDS011;1801;51.050;6.246;2023-10-13T22:25:15;19.93;;;9.67;;
3573;SDS011;1801;51.050;6.246;2023-10-13T22:27:41;26.47;;;8.33;;
3573;SDS011;1801;51.050;6.246;2023-10-13T22:30:10;17.33;;;8.27;;
3573;SDS011;1801;51.050;6.246;2023-10-13T22:32:49;19.43;;;6.13;;
3573;SDS011;1801;51.050;6.246;2023-10-13T22:35:15;15.10;;;8.07;;
3573;SDS011;1801;51.050;6.246;2023-10-13T22:37:50;18.53;;;7.77;;
3573;SDS011;1801;51.050;6.246;2023-10-13T22:40:16;15.80;;;9.50;;
3573;SDS011;1801;51.050;6.246;2023-10-13T22:42:41;14.33;;;8.67;;
3573;SDS011;1801;51.050;6.246;2023-10-13T22:45:08;20.93;;;10.00;;
3573;SDS011;1801;51.050;6.246;2023-10-13T22:47:42;20.23;;;8.87;;
3573;SDS011;1801;51.050;6.246;2023-10-13T22:50:07;17.50;;;9.27;;
3573;SDS011;1801;51.050;6.246;2023-10-13T22:52:37;19.73;;;9.17;;
3573;SDS011;1801;51.050;6.246;2023-10-13T22:55:02;20.93;;;9.70;;
3573;SDS011;1801;51.050;6.246;2023-10-13T22:57:44;19.97;;;9.67;;
3573;SDS011;1801;51.050;6.246;2023-10-13T23:00:09;27.13;;;10.30;;
3573;SDS011;1801;51.050;6.246;2023-10-13T23:02:35;28.17;;;9.87;;
3573;SDS011;1801;51.050;6.246;2023-10-13T23:05:04;17.40;;;9.13;;
3573;SDS011;1801;51.050;6.246;2023-10-13T23:07:49;22.37;;;10.37;;
3573;SDS011;1801;51.050;6.246;2023-10-13T23:10:25;19.90;;;10.50;;
3573;SDS011;1801;51.050;6.246;2023-10-13T23:13:09;18.47;;;10.67;;
3573;SDS011;1801;51.050;6.246;2023-10-13T23:15:34;20.80;;;11.53;;
3573;SDS011;1801;51.050;6.246;2023-10-13T23:18:00;20.53;;;10.10;;
3573;SDS011;1801;51.050;6.246;2023-10-13T23:20:25;22.60;;;9.93;;
3573;SDS011;1801;51.050;6.246;2023-10-13T23:22:51;18.00;;;9.53;;
3573;SDS011;1801;51.050;6.246;2023-10-13T23:25:16;17.17;;;9.50;;
3573;SDS011;1801;51.050;6.246;2023-10-13T23:27:41;25.93;;;11.90;;
3573;SDS011;1801;51.050;6.246;2023-10-13T23:30:07;18.33;;;8.63;;
3573;SDS011;1801;51.050;6.246;2023-10-13T23:32:35;31.43;;;10.23;;
3573;SDS011;1801;51.050;6.246;2023-10-13T23:35:01;20.93;;;8.37;;
3573;SDS011;1801;51.050;6.246;2023-10-13T23:37:26;22.87;;;8.77;;
3573;SDS011;1801;51.050;6.246;2023-10-13T23:39:56;15.33;;;7.83;;
3573;SDS011;1801;51.050;6.246;2023-10-13T23:42:24;14.20;;;7.30;;
3573;SDS011;1801;51.050;6.246;2023-10-13T23:44:49;15.27;;;7.53;;
3573;SDS011;1801;51.050;6.246;2023-10-13T23:47:15;13.90;;;6.17;;
3573;SDS011;1801;51.050;6.246;2023-10-13T23:49:40;22.50;;;8.87;;
3573;SDS011;1801;51.050;6.246;2023-10-13T23:52:05;16.97;;;8.40;;
3573;SDS011;1801;51.050;6.246;2023-10-13T23:54:32;20.07;;;7.73;;
3573;SDS011;1801;51.050;6.246;2023-10-13T23:57:03;22.70;;;8.53;;
3573;SDS011;1801;51.050;6.246;2023-10-13T23:59:29;17.77;;;8.23;;
